Have a Safe July 4th! 

Flight Track Log - Related Links

Times and Time Zones

All times are in EDT time to prevent confusion due to time zone crossing. See the SWA525 flight status page for this flight to view local times or setup timezone preferences in your user account.

Time Position Orientation Groundspeed Altitude Reporting Facility
EDT Latitude Longitude Course Direction KTS MPH feet Rate Location/Type
Wed 04:44:45 PM 32.9000 -96.9167 314° West 219 252 3,600  Level Dallas / Fort Worth TRACON
Wed 04:45:39 PM 32.9500 -96.9167 360° North 243 280 5,800 2,474 Climbing Dallas / Fort Worth TRACON
Wed 04:46:39 PM 32.9333 -96.8167 101° East 300 345 8,300 2,295 Climbing Dallas / Fort Worth TRACON
Wed 04:48:42 PM 32.8683 -96.6119 111° Southeast 340 391 12,800 2,164 Climbing Fort Worth Center
Wed 04:49:42 PM 32.8781 -96.4958 84° East 370 426 14,900 2,250 Climbing Fort Worth Center
Wed 04:50:42 PM 32.8894 -96.3522 85° East 391 450 17,300 2,050 Climbing Fort Worth Center
Wed 04:51:42 PM 32.9008 -96.2258 84° East 411 473 19,000 1,850 Climbing Fort Worth Center
Wed 04:52:42 PM 32.9161 -96.0722 83° East 424 488 21,000 2,000 Climbing Fort Worth Center
Wed 04:53:42 PM 32.9144 -95.9411 91° East 429 494 23,000 1,750 Climbing Fort Worth Center
Wed 04:54:42 PM 32.8856 -95.7831 102° East 441 507 24,500 1,550 Climbing Fort Worth Center
Wed 04:55:42 PM 32.8625 -95.6328 100° East 454 522 26,100 1,400 Climbing Fort Worth Center
Wed 04:56:42 PM 32.8375 -95.4847 101° East 459 528 27,300 1,150 Climbing Fort Worth Center
Wed 04:57:42 PM 32.8103 -95.3444 103° East 469 540 28,400 1,050 Climbing Fort Worth Center
Wed 04:58:42 PM 32.7803 -95.1872 103° East 474 545 29,400 1,100 Climbing Fort Worth Center
Wed 04:59:42 PM 32.7544 -95.0297 101° East 484 557 30,600 1,350 Climbing Fort Worth Center
Wed 05:00:42 PM 32.7242 -94.8675 102° East 490 564 32,100 1,400 Climbing Fort Worth Center
Wed 05:01:42 PM 32.6856 -94.7131 107° East 490 564 33,400 1,150 Climbing Fort Worth Center
Wed 05:02:42 PM 32.6322 -94.5642 113° Southeast 485 558 34,400 800 Climbing Fort Worth Center
Wed 05:03:42 PM 32.5828 -94.4178 112° Southeast 485 558 35,000 300 Climbing Fort Worth Center
Wed 05:04:42 PM 32.5331 -94.2644 111° Southeast 490 564 35,000  Level Fort Worth Center
Wed 05:05:42 PM 32.4792 -94.1111 113° Southeast 490 564 35,000  Level Fort Worth Center
Wed 05:06:42 PM 32.4269 -93.9578 112° Southeast 495 570 35,000  Level Fort Worth Center
Wed 05:07:43 PM 32.3769 -93.8097 112° Southeast 495 570 35,000  Level Fort Worth Center
Wed 05:09:52 PM 32.2600 -93.4781 113° Southeast 494 568 35,000  Level Houston Center
Wed 05:10:54 PM 32.2067 -93.3294 113° Southeast 493 567 35,000  Level Houston Center
Wed 05:11:56 PM 32.1544 -93.1797 112° Southeast 493 567 35,000  Level Houston Center
Wed 05:12:59 PM 32.1017 -93.0319 113° Southeast 490 564 35,000  Level Houston Center
Wed 05:14:01 PM 32.0386 -92.8922 118° Southeast 497 572 35,000  Level Houston Center
Wed 05:15:03 PM 31.9422 -92.7906 138° Southeast 469 540 35,000  Level Houston Center
Wed 05:16:05 PM 31.8250 -92.6697 139° Southeast 467 537 35,000  Level Houston Center
Wed 05:17:07 PM 31.7272 -92.5683 139° Southeast 468 539 35,000  Level Houston Center
Wed 05:18:09 PM 31.6292 -92.4664 138° Southeast 470 541 35,000  Level Houston Center
Wed 05:19:11 PM 31.5311 -92.3658 139° Southeast 468 539 35,000  Level Houston Center
Wed 05:20:13 PM 31.4317 -92.2661 139° Southeast 469 540 35,000  Level Houston Center
Wed 05:21:16 PM 31.3333 -92.1658 139° Southeast 468 539 35,000 -192 Level Houston Center
Wed 05:22:18 PM 31.2150 -92.0456 139° Southeast 469 540 34,600 -532 Descending Houston Center
Wed 05:23:20 PM 31.1289 -91.9578 139° Southeast 469 540 33,900 -871 Descending Houston Center
Wed 05:24:22 PM 31.0100 -91.8386 139° Southeast 469 540 32,800 -1,694 Descending Houston Center
Wed 05:25:24 PM 30.9125 -91.7408 139° Southeast 465 535 30,400 -2,565 Descending Houston Center
Wed 05:26:26 PM 30.8153 -91.6414 139° Southeast 464 534 27,500 -2,516 Descending Houston Center
Wed 05:27:28 PM 30.7192 -91.5450 139° Southeast 458 527 25,200 -2,177 Descending Houston Center
Wed 05:28:30 PM 30.6261 -91.4544 140° Southeast 443 510 23,000 -2,226 Descending Houston Center
Wed 05:29:32 PM 30.5264 -91.3544 139° Southeast 419 482 20,600 -2,160 Descending Houston Center
Wed 05:30:35 PM 30.4411 -91.2706 140° Southeast 406 467 18,500 -1,920 Descending Houston Center
Wed 05:31:37 PM 30.3586 -91.1889 139° Southeast 395 455 16,600 -2,038 Descending Houston Center
Wed 05:32:21 PM 30.2900 -91.1225 140° Southeast 385 443 14,900 -1,935 Descending Houston Center
Wed 05:32:39 PM 30.2778 -91.1086 136° Southeast 388 447 14,600 -2,066 Descending Houston Center
Wed 05:33:22 PM 30.2044 -91.0386 140° Southeast 376 433 12,800 -1,935 Descending Houston Center
Wed 05:33:41 PM 30.1964 -91.0317 143° Southeast 381 438 12,600 -1,672 Descending Houston Center
Wed 05:34:23 PM 30.1272 -90.9617 139° Southeast 364 419 11,100 -1,645 Descending Houston Center
Wed 05:34:43 PM 30.1144 -90.9336 118° Southeast 373 429 10,900 -885 Descending Houston Center
Wed 05:35:24 PM 30.1144 -90.8636 90° East 313 360 10,200 -1,645 Descending Houston Center
Wed 05:35:45 PM 30.1219 -90.8347 73° East 319 367 9,200 -1,855 Descending Houston Center
Wed 05:36:19 PM 30.1139 -90.7700 98° East 323 372 8,500 -774 Descending Houston Center
Wed 05:36:47 PM 30.1069 -90.7350 103° East 319 367 8,400 -627 Descending Houston Center
Wed 05:37:26 PM 30.0906 -90.6769 108° East 267 307 7,800 -1,065 Descending Houston Center
Wed 05:37:49 PM 30.0842 -90.6525 107° East 286 329 7,300 -1,377 Descending Houston Center
Wed 05:38:27 PM 30.0717 -90.5961 104° East 254 292 6,400 -1,258 Descending Houston Center
Wed 05:38:51 PM 30.0675 -90.5736 102° East 268 308 6,000 -1,200 Descending Houston Center
Wed 05:39:27 PM 30.0506 -90.5150 108° East 246 283 5,200 -1,143 Descending Houston Center
Wed 05:39:54 PM 30.0464 -90.4839 99° East 254 292 4,800 -1,151 Descending Houston Center
Wed 05:40:40 PM 30.0336 -90.4364 107° East 207 238 3,800 -1,355 Descending Houston Center
Wed 05:40:56 PM 30.0303 -90.4214 104° East 229 264 3,400 -1,574 Descending Houston Center
Wed 05:41:41 PM 30.0197 -90.3819 107° East 163 188 2,200 -1,645 Descending Houston Center
Wed 05:41:58 PM 30.0183 -90.3714 99° East 194 223 1,700 -1,444 Descending Houston Center
Wed 05:42:35 PM 30.0100 -90.3389 106° East 163 188 900 -1,065 Descending Houston Center
Wed 05:43:00 PM 30.0069 -90.3231 103° East 173 199 600 -716 Descending Houston Center
Wed 05:43:42 PM 29.9981 -90.2867 106° East 146 168 100 -97 Descending Houston Center
Wed 05:44:02 PM 29.9950 -90.2761 108° East 170 196 500 1,200 Climbing Houston Center
Wed 05:46:00 PM 29.9934 -90.2580 101° East  Level Estimated
Wed 05:53:00 PM 29.9934 -90.2580 101° East  Level Estimated

Login

Don't have an account? Register now (free) for customized features, flight alerts, and more!